createdAt,value
2023-05-16T00:00:00.617Z,16.2
2023-05-16T00:01:00.682Z,16.2
2023-05-16T00:02:00.657Z,16.2
2023-05-16T00:03:01.138Z,16.2
2023-05-16T00:04:00.777Z,16.1
2023-05-16T00:05:00.763Z,16.1
2023-05-16T00:06:00.692Z,16.1
2023-05-16T00:07:00.598Z,16.1
2023-05-16T00:08:00.599Z,16.0
2023-05-16T00:09:00.705Z,16.0
2023-05-16T00:10:00.685Z,16.0
2023-05-16T00:11:00.608Z,16.0
2023-05-16T00:12:00.609Z,16.0
2023-05-16T00:13:00.615Z,15.9
2023-05-16T00:14:00.614Z,15.9
2023-05-16T00:15:00.642Z,15.9
2023-05-16T00:16:00.670Z,15.9
2023-05-16T00:17:00.986Z,15.9
2023-05-16T00:18:00.717Z,15.9
2023-05-16T00:19:00.623Z,15.9
2023-05-16T00:20:01.445Z,15.9
2023-05-16T00:21:00.645Z,15.8
2023-05-16T00:22:00.655Z,15.8
2023-05-16T00:23:00.625Z,15.8
2023-05-16T00:24:00.638Z,15.8
2023-05-16T00:25:00.704Z,15.8
2023-05-16T00:26:00.630Z,15.8
2023-05-16T00:27:00.626Z,15.8
2023-05-16T00:28:00.776Z,15.7
2023-05-16T00:29:00.689Z,15.7
2023-05-16T00:30:01.193Z,15.7
2023-05-16T00:31:00.803Z,15.7
2023-05-16T00:32:00.663Z,15.7
2023-05-16T00:33:00.665Z,15.7
2023-05-16T00:34:00.737Z,15.7
2023-05-16T00:35:00.721Z,15.7
2023-05-16T00:36:00.694Z,15.8
2023-05-16T00:37:00.711Z,15.8
2023-05-16T00:38:00.640Z,15.7
2023-05-16T00:39:00.679Z,15.7
2023-05-16T00:40:00.626Z,15.7
2023-05-16T00:41:00.623Z,15.8
2023-05-16T00:42:00.656Z,15.8
2023-05-16T00:43:00.658Z,15.8
2023-05-16T00:44:00.588Z,15.8
2023-05-16T00:45:00.606Z,15.8
2023-05-16T00:46:00.669Z,15.8
2023-05-16T00:47:00.595Z,15.8
2023-05-16T00:48:00.717Z,15.7
2023-05-16T00:49:00.726Z,15.7
2023-05-16T00:50:00.874Z,15.7
2023-05-16T00:51:01.106Z,15.7
2023-05-16T00:52:01.086Z,15.7
2023-05-16T00:53:00.631Z,15.6
2023-05-16T00:54:01.126Z,15.6
2023-05-16T00:55:01.395Z,15.6
2023-05-16T00:56:00.852Z,15.6
2023-05-16T00:57:00.634Z,15.6
2023-05-16T00:58:00.867Z,15.6
2023-05-16T00:59:00.735Z,15.6
2023-05-16T01:00:00.665Z,15.6
2023-05-16T01:01:00.861Z,15.5
2023-05-16T01:02:01.425Z,15.5
2023-05-16T01:03:00.894Z,15.5
2023-05-16T01:04:00.867Z,15.5
2023-05-16T01:05:00.961Z,15.5
2023-05-16T01:06:00.656Z,15.5
2023-05-16T01:07:01.246Z,15.5
2023-05-16T01:08:00.650Z,15.5
2023-05-16T01:09:00.697Z,15.5
2023-05-16T01:10:02.080Z,15.5
2023-05-16T01:11:03.968Z,15.5
2023-05-16T01:12:10.549Z,15.5
2023-05-16T01:13:07.988Z,15.5
2023-05-16T01:14:03.911Z,15.6
2023-05-16T01:15:00.622Z,15.6
2023-05-16T01:16:10.571Z,15.7
2023-05-16T01:17:10.477Z,15.7
2023-05-16T01:18:01.654Z,15.7
2023-05-16T01:19:10.523Z,15.6
2023-05-16T01:20:10.502Z,15.6
2023-05-16T01:21:03.567Z,15.6
2023-05-16T01:22:05.760Z,15.6
2023-05-16T01:23:10.501Z,15.6
2023-05-16T01:24:10.498Z,15.6
2023-05-16T01:25:00.652Z,15.6
2023-05-16T01:26:10.307Z,15.6
2023-05-16T01:27:02.849Z,15.6
2023-05-16T01:28:01.216Z,15.6
2023-05-16T01:29:00.858Z,15.6
2023-05-16T01:30:00.648Z,15.6
2023-05-16T01:31:00.632Z,15.6
2023-05-16T01:32:00.731Z,15.5
2023-05-16T01:33:00.678Z,15.5
2023-05-16T01:34:00.672Z,15.4
2023-05-16T01:35:00.653Z,15.4
2023-05-16T01:36:08.015Z,15.4
2023-05-16T01:37:01.685Z,15.4
2023-05-16T01:38:10.743Z,15.4
2023-05-16T01:39:10.503Z,15.3
2023-05-16T01:40:03.950Z,15.3
2023-05-16T01:41:03.397Z,15.3
2023-05-16T01:42:03.504Z,15.3
2023-05-16T01:43:02.810Z,15.3
2023-05-16T01:44:04.032Z,15.3
2023-05-16T01:45:04.025Z,15.2
2023-05-16T01:46:03.606Z,15.3
2023-05-16T01:47:03.185Z,15.3
2023-05-16T01:48:06.343Z,15.3
2023-05-16T01:49:00.597Z,15.2
2023-05-16T01:50:10.514Z,15.2
2023-05-16T01:51:01.303Z,15.2
2023-05-16T01:52:04.985Z,15.2
2023-05-16T01:53:06.531Z,15.2
2023-05-16T01:54:04.947Z,15.2
2023-05-16T01:55:01.836Z,15.2
2023-05-16T01:56:01.245Z,15.2
2023-05-16T01:57:03.168Z,15.2
2023-05-16T01:58:01.937Z,15.1
2023-05-16T01:59:01.208Z,15.1
2023-05-16T02:00:00.691Z,15.1
2023-05-16T02:01:02.587Z,15.1
2023-05-16T02:02:01.648Z,15.1
2023-05-16T02:03:00.738Z,15.1
2023-05-16T02:04:00.924Z,15.1
2023-05-16T02:05:00.624Z,15.1
2023-05-16T02:06:00.700Z,15.1
2023-05-16T02:07:00.760Z,15.1
2023-05-16T02:08:00.743Z,15.1
2023-05-16T02:09:00.669Z,15.1
2023-05-16T02:10:00.833Z,15.0
2023-05-16T02:11:00.664Z,15.0
2023-05-16T02:12:00.643Z,15.0
2023-05-16T02:13:00.623Z,14.9
2023-05-16T02:14:00.667Z,14.9
2023-05-16T02:15:00.631Z,14.9
2023-05-16T02:16:00.656Z,14.9
2023-05-16T02:17:00.698Z,14.9
2023-05-16T02:18:00.756Z,14.9
2023-05-16T02:19:00.747Z,14.9
2023-05-16T02:20:00.641Z,14.9
2023-05-16T02:21:00.635Z,14.9
2023-05-16T02:22:00.628Z,14.8
2023-05-16T02:23:00.799Z,14.8
2023-05-16T02:24:00.685Z,14.8
2023-05-16T02:25:01.367Z,14.7
2023-05-16T02:26:00.640Z,14.7
2023-05-16T02:27:00.694Z,14.7
2023-05-16T02:28:00.663Z,14.7
2023-05-16T02:29:01.050Z,14.7
2023-05-16T02:30:00.754Z,14.7
2023-05-16T02:31:00.785Z,14.6
2023-05-16T02:32:00.627Z,14.6
2023-05-16T02:33:00.737Z,14.6
2023-05-16T02:34:00.973Z,14.6
2023-05-16T02:35:00.611Z,14.6
2023-05-16T02:36:00.680Z,14.6
2023-05-16T02:37:00.626Z,14.7
2023-05-16T02:38:00.614Z,14.7
2023-05-16T02:39:01.113Z,14.8
2023-05-16T02:40:01.024Z,14.8
2023-05-16T02:41:00.655Z,14.8
2023-05-16T02:42:00.674Z,14.8
2023-05-16T02:43:00.654Z,14.8
2023-05-16T02:44:00.666Z,14.8
2023-05-16T02:45:00.650Z,14.8
2023-05-16T02:46:03.228Z,14.9
2023-05-16T02:47:00.651Z,14.9
2023-05-16T02:48:00.734Z,14.9
2023-05-16T02:49:00.657Z,14.9
2023-05-16T02:50:00.701Z,14.9
2023-05-16T02:51:00.720Z,14.9
2023-05-16T02:52:00.625Z,14.9
2023-05-16T02:53:00.647Z,14.8
2023-05-16T02:54:00.626Z,14.8
2023-05-16T02:55:16.704Z,14.8
2023-05-16T02:56:00.780Z,14.8
2023-05-16T02:57:00.665Z,14.8
2023-05-16T02:58:00.635Z,14.8
2023-05-16T02:59:00.656Z,14.8
2023-05-16T03:00:00.605Z,14.9
2023-05-16T03:01:00.752Z,14.9
2023-05-16T03:02:00.964Z,15.0
2023-05-16T03:03:00.798Z,15.0
2023-05-16T03:04:00.741Z,15.0
2023-05-16T03:05:00.654Z,14.9
2023-05-16T03:06:01.175Z,15.0
2023-05-16T03:07:00.631Z,15.0
2023-05-16T03:08:00.623Z,15.0
2023-05-16T03:09:00.657Z,15.0
2023-05-16T03:10:00.672Z,15.0
2023-05-16T03:11:00.651Z,15.0
2023-05-16T03:12:00.629Z,15.1
2023-05-16T03:13:00.722Z,15.1
2023-05-16T03:14:01.903Z,15.1
2023-05-16T03:15:00.630Z,15.1
2023-05-16T03:16:00.730Z,15.1
2023-05-16T03:17:00.665Z,15.1
2023-05-16T03:18:00.646Z,15.1
2023-05-16T03:19:00.703Z,15.1
2023-05-16T03:20:00.622Z,15.1
2023-05-16T03:21:00.624Z,15.1
2023-05-16T03:22:00.673Z,15.1
2023-05-16T03:23:00.645Z,15.1
2023-05-16T03:24:02.675Z,15.1
2023-05-16T03:25:00.671Z,15.0
2023-05-16T03:26:00.642Z,15.0
2023-05-16T03:27:00.625Z,15.0
2023-05-16T03:28:01.122Z,15.0
2023-05-16T03:29:00.646Z,15.0
2023-05-16T03:30:00.685Z,14.9
2023-05-16T03:31:00.652Z,14.9
2023-05-16T03:32:00.698Z,14.9
2023-05-16T03:33:00.760Z,14.9
2023-05-16T03:34:00.639Z,14.9
2023-05-16T03:35:00.832Z,14.9
2023-05-16T03:36:00.664Z,14.9
2023-05-16T03:37:00.664Z,14.8
2023-05-16T03:38:00.724Z,14.8
2023-05-16T03:39:00.643Z,14.7
2023-05-16T03:40:00.660Z,14.7
2023-05-16T03:41:00.968Z,14.6
2023-05-16T03:42:00.625Z,14.6
2023-05-16T03:43:00.639Z,14.6
2023-05-16T03:44:00.648Z,14.5
2023-05-16T03:45:00.682Z,14.5
2023-05-16T03:46:00.910Z,14.5
2023-05-16T03:47:00.698Z,14.5
2023-05-16T03:48:00.721Z,14.5
2023-05-16T03:49:00.699Z,14.4
2023-05-16T03:50:00.623Z,14.4
2023-05-16T03:51:00.616Z,14.4
2023-05-16T03:52:00.647Z,14.4
2023-05-16T03:53:00.660Z,14.4
2023-05-16T03:54:00.645Z,14.5
2023-05-16T03:55:00.787Z,14.5
2023-05-16T03:56:00.657Z,14.6
2023-05-16T03:57:00.704Z,14.6
2023-05-16T03:58:00.609Z,14.6
2023-05-16T03:59:00.666Z,14.6
2023-05-16T04:00:00.632Z,14.6
2023-05-16T04:01:00.630Z,14.6
2023-05-16T04:02:00.691Z,14.6
2023-05-16T04:03:00.656Z,14.7
2023-05-16T04:04:00.640Z,14.7
2023-05-16T04:05:00.682Z,14.8
2023-05-16T04:06:00.700Z,14.8
2023-05-16T04:07:01.807Z,14.8
2023-05-16T04:08:00.697Z,14.8
2023-05-16T04:09:00.638Z,14.8
2023-05-16T04:10:00.886Z,14.8
2023-05-16T04:11:00.636Z,14.8
2023-05-16T04:12:00.621Z,14.9
2023-05-16T04:13:00.629Z,14.9
2023-05-16T04:14:00.695Z,14.9
2023-05-16T04:15:01.581Z,14.9
2023-05-16T04:16:00.622Z,14.9
2023-05-16T04:17:00.676Z,14.9
2023-05-16T04:18:00.766Z,14.9
2023-05-16T04:19:00.887Z,14.9
2023-05-16T04:20:00.773Z,14.9
2023-05-16T04:21:00.631Z,14.9
2023-05-16T04:22:00.613Z,14.9
2023-05-16T04:23:00.676Z,14.9
2023-05-16T04:24:00.727Z,14.9
2023-05-16T04:25:00.643Z,14.9
2023-05-16T04:26:00.662Z,14.9
2023-05-16T04:27:00.635Z,14.9
2023-05-16T04:28:00.632Z,14.9
2023-05-16T04:29:00.651Z,14.9
2023-05-16T04:30:00.826Z,14.9
2023-05-16T04:31:00.719Z,14.9
2023-05-16T04:32:00.774Z,14.9
2023-05-16T04:33:00.674Z,14.9
2023-05-16T04:34:00.656Z,15.0
2023-05-16T04:35:00.675Z,15.0
2023-05-16T04:36:00.648Z,15.0
2023-05-16T04:37:00.653Z,15.0
2023-05-16T04:38:00.640Z,15.0
2023-05-16T04:39:00.630Z,15.0
2023-05-16T04:40:00.908Z,15.0
2023-05-16T04:41:00.700Z,15.0
2023-05-16T04:42:00.681Z,15.0
2023-05-16T04:43:00.647Z,15.0
2023-05-16T04:44:01.538Z,15.0
2023-05-16T04:45:00.629Z,15.1
2023-05-16T04:46:00.692Z,15.1
2023-05-16T04:47:00.602Z,15.1
2023-05-16T04:48:00.710Z,15.1
2023-05-16T04:49:00.619Z,15.1
2023-05-16T04:50:00.736Z,15.1
2023-05-16T04:51:00.654Z,15.1
2023-05-16T04:52:00.841Z,15.0
2023-05-16T04:53:00.702Z,15.0
2023-05-16T04:54:00.627Z,15.0
2023-05-16T04:55:00.722Z,15.1
2023-05-16T04:56:00.668Z,15.1
2023-05-16T04:57:00.647Z,15.1
2023-05-16T04:58:00.624Z,15.1
2023-05-16T04:59:00.661Z,15.1
2023-05-16T05:00:00.859Z,15.1
2023-05-16T05:01:01.792Z,15.1
2023-05-16T05:02:00.698Z,15.1
2023-05-16T05:03:00.876Z,15.1
2023-05-16T05:04:00.637Z,15.1
2023-05-16T05:05:00.753Z,15.1
2023-05-16T05:06:00.800Z,15.1
2023-05-16T05:07:00.673Z,15.1
2023-05-16T05:08:00.699Z,15.1
2023-05-16T05:09:00.636Z,15.1
2023-05-16T05:10:00.960Z,15.1
2023-05-16T05:11:00.622Z,15.1
2023-05-16T05:12:00.647Z,15.1
2023-05-16T05:13:00.747Z,15.1
2023-05-16T05:14:01.003Z,15.1
2023-05-16T05:15:00.714Z,15.1
2023-05-16T05:16:00.642Z,15.1
2023-05-16T05:17:00.709Z,15.1
2023-05-16T05:18:00.810Z,15.1
2023-05-16T05:19:00.782Z,15.1
2023-05-16T05:20:02.956Z,15.1
2023-05-16T05:21:00.718Z,15.1
2023-05-16T05:22:00.664Z,15.1
2023-05-16T05:23:00.672Z,15.1
2023-05-16T05:24:00.667Z,15.1
2023-05-16T05:25:00.701Z,15.2
2023-05-16T05:26:00.647Z,15.2
2023-05-16T05:27:00.674Z,15.3
2023-05-16T05:28:00.632Z,15.3
2023-05-16T05:29:05.462Z,15.3
2023-05-16T05:30:01.108Z,15.4
2023-05-16T05:31:00.660Z,15.4
2023-05-16T05:32:00.748Z,15.4
2023-05-16T05:33:00.714Z,15.4
2023-05-16T05:34:00.643Z,15.5
2023-05-16T05:35:00.828Z,15.5
2023-05-16T05:36:03.257Z,15.5
2023-05-16T05:37:00.632Z,15.6
2023-05-16T05:38:00.667Z,15.6
2023-05-16T05:39:00.704Z,15.6
2023-05-16T05:40:00.713Z,15.6
2023-05-16T05:41:00.613Z,15.6
2023-05-16T05:42:00.798Z,15.7
2023-05-16T05:43:00.659Z,15.7
2023-05-16T05:44:00.597Z,15.7
2023-05-16T05:45:00.610Z,15.8
2023-05-16T05:46:00.742Z,15.8
2023-05-16T05:47:00.768Z,15.9
2023-05-16T05:48:00.721Z,15.9
2023-05-16T05:49:00.647Z,16.0
2023-05-16T05:50:00.649Z,16.0
2023-05-16T05:51:00.661Z,16.1
2023-05-16T05:52:00.865Z,16.2
2023-05-16T05:53:00.635Z,16.3
2023-05-16T05:54:00.966Z,16.4
2023-05-16T05:55:00.657Z,16.6
2023-05-16T05:56:00.651Z,16.7
2023-05-16T05:57:00.654Z,16.9
2023-05-16T05:58:00.888Z,17.1
2023-05-16T05:59:00.631Z,17.3
2023-05-16T06:00:00.642Z,17.6
2023-05-16T06:01:00.621Z,17.8
2023-05-16T06:02:00.666Z,17.9
2023-05-16T06:03:00.696Z,18.1
2023-05-16T06:04:02.219Z,18.3
2023-05-16T06:05:00.718Z,18.5
2023-05-16T06:06:00.723Z,18.7
2023-05-16T06:07:00.637Z,18.9
2023-05-16T06:08:00.620Z,19.0
2023-05-16T06:09:00.709Z,19.1
2023-05-16T06:10:01.589Z,19.2
2023-05-16T06:11:00.610Z,19.3
2023-05-16T06:12:00.630Z,19.4
2023-05-16T06:13:00.606Z,19.4
2023-05-16T06:14:00.626Z,19.5
2023-05-16T06:15:00.690Z,19.4
2023-05-16T06:16:00.682Z,19.3
2023-05-16T06:17:00.666Z,19.3
2023-05-16T06:18:00.768Z,19.3
2023-05-16T06:19:00.727Z,19.3
2023-05-16T06:20:00.799Z,19.5
2023-05-16T06:21:00.615Z,19.6
2023-05-16T06:22:00.643Z,19.8
2023-05-16T06:23:00.629Z,20.0
2023-05-16T06:24:00.645Z,20.2
2023-05-16T06:25:00.712Z,20.4
2023-05-16T06:26:01.325Z,20.5
2023-05-16T06:27:00.624Z,20.7
2023-05-16T06:28:00.608Z,20.7
2023-05-16T06:29:00.647Z,20.7
2023-05-16T06:30:00.661Z,20.6
2023-05-16T06:31:00.733Z,20.5
2023-05-16T06:32:00.716Z,20.5
2023-05-16T06:33:00.711Z,20.6
2023-05-16T06:34:00.637Z,20.8
2023-05-16T06:35:00.630Z,20.9
2023-05-16T06:36:00.670Z,20.9
2023-05-16T06:37:00.586Z,21.2
2023-05-16T06:38:00.632Z,21.4
2023-05-16T06:39:00.625Z,21.5
2023-05-16T06:40:00.633Z,21.5
2023-05-16T06:41:00.661Z,21.6
2023-05-16T06:42:00.695Z,21.9
2023-05-16T06:43:00.629Z,22.2
2023-05-16T06:44:00.647Z,22.3
2023-05-16T06:45:00.606Z,22.5
2023-05-16T06:46:00.679Z,22.9
2023-05-16T06:47:00.753Z,23.3
2023-05-16T06:48:00.710Z,23.5
2023-05-16T06:49:00.628Z,23.8
2023-05-16T06:50:00.901Z,24.0
2023-05-16T06:51:00.655Z,24.1
2023-05-16T06:52:01.514Z,24.5
2023-05-16T06:53:00.984Z,24.7
2023-05-16T06:54:02.816Z,25.1
2023-05-16T06:55:00.650Z,25.3
2023-05-16T06:56:00.652Z,25.7
2023-05-16T06:57:00.626Z,26.0
2023-05-16T06:58:00.638Z,26.0
2023-05-16T06:59:00.625Z,26.1
2023-05-16T07:00:00.758Z,26.4
2023-05-16T07:01:00.682Z,26.6
2023-05-16T07:02:00.706Z,26.6
2023-05-16T07:03:00.837Z,26.4
2023-05-16T07:04:00.810Z,26.4
2023-05-16T07:05:00.661Z,26.5
2023-05-16T07:06:00.648Z,26.4
2023-05-16T07:07:00.649Z,26.5
2023-05-16T07:08:00.650Z,26.5
2023-05-16T07:09:00.809Z,26.6
2023-05-16T07:10:00.687Z,26.5
2023-05-16T07:11:00.847Z,26.5
2023-05-16T07:12:00.633Z,26.5
2023-05-16T07:13:00.765Z,26.3
2023-05-16T07:14:00.675Z,25.9
2023-05-16T07:15:00.723Z,25.8
2023-05-16T07:16:00.669Z,26.2
2023-05-16T07:17:00.895Z,26.5
2023-05-16T07:18:00.716Z,26.7
2023-05-16T07:19:00.675Z,26.7
2023-05-16T07:20:02.865Z,26.7
2023-05-16T07:21:00.645Z,26.8
2023-05-16T07:22:00.714Z,26.5
2023-05-16T07:23:00.649Z,26.5
2023-05-16T07:24:00.644Z,26.6
2023-05-16T07:25:00.736Z,26.4
2023-05-16T07:26:00.711Z,26.1
2023-05-16T07:27:00.691Z,26.1
2023-05-16T07:28:00.666Z,26.1
2023-05-16T07:29:00.694Z,26.0
2023-05-16T07:30:00.632Z,25.8
2023-05-16T07:31:00.631Z,25.6
2023-05-16T07:32:00.690Z,25.3
2023-05-16T07:33:00.732Z,25.0
2023-05-16T07:34:00.666Z,25.0
2023-05-16T07:35:00.623Z,25.0
2023-05-16T07:36:12.218Z,25.1
2023-05-16T07:37:00.660Z,25.1
2023-05-16T07:38:00.647Z,25.1
2023-05-16T07:39:00.677Z,25.1
2023-05-16T07:40:00.894Z,25.2
2023-05-16T07:41:00.640Z,25.1
2023-05-16T07:42:00.633Z,25.1
2023-05-16T07:43:00.619Z,25.0
2023-05-16T07:44:00.650Z,25.0
2023-05-16T07:45:00.640Z,25.1
2023-05-16T07:46:01.054Z,25.2
2023-05-16T07:47:01.141Z,25.2
2023-05-16T07:48:00.674Z,25.1
2023-05-16T07:49:00.636Z,25.2
2023-05-16T07:50:00.736Z,25.1
2023-05-16T07:51:00.638Z,25.0
2023-05-16T07:52:00.623Z,24.9
2023-05-16T07:53:04.101Z,24.8
2023-05-16T07:54:00.645Z,24.7
2023-05-16T07:55:00.644Z,24.5
2023-05-16T07:56:00.745Z,24.5
2023-05-16T07:57:00.988Z,24.6
2023-05-16T07:58:00.800Z,24.5
2023-05-16T07:59:00.709Z,24.5
2023-05-16T08:00:00.651Z,24.5
2023-05-16T08:01:00.676Z,24.4
2023-05-16T08:02:00.702Z,24.4
2023-05-16T08:03:00.796Z,24.3
2023-05-16T08:04:00.750Z,24.4
2023-05-16T08:05:00.854Z,24.3
2023-05-16T08:06:00.634Z,24.3
2023-05-16T08:07:00.753Z,24.5
2023-05-16T08:08:00.638Z,24.4
2023-05-16T08:09:00.709Z,24.4
2023-05-16T08:10:00.624Z,24.3
2023-05-16T08:11:00.619Z,24.3
2023-05-16T08:12:00.682Z,24.5
2023-05-16T08:13:00.653Z,24.6
2023-05-16T08:14:00.626Z,24.7
2023-05-16T08:15:00.681Z,24.6
2023-05-16T08:16:00.749Z,24.7
2023-05-16T08:17:00.741Z,24.9
2023-05-16T08:18:00.689Z,25.0
2023-05-16T08:19:00.721Z,25.2
2023-05-16T08:20:00.802Z,25.3
2023-05-16T08:21:00.642Z,25.5
2023-05-16T08:22:00.859Z,25.8
2023-05-16T08:23:00.624Z,25.9
2023-05-16T08:24:00.628Z,26.1
2023-05-16T08:25:00.650Z,26.3
2023-05-16T08:26:00.974Z,26.5
2023-05-16T08:27:00.652Z,26.9
2023-05-16T08:28:00.710Z,27.0
2023-05-16T08:29:00.665Z,27.2
2023-05-16T08:30:00.688Z,27.3
2023-05-16T08:31:00.746Z,27.4
2023-05-16T08:32:00.683Z,27.4
2023-05-16T08:33:00.904Z,27.4
2023-05-16T08:34:00.635Z,27.3
2023-05-16T08:35:00.606Z,27.5
2023-05-16T08:36:00.653Z,27.7
2023-05-16T08:37:00.629Z,27.8
2023-05-16T08:38:00.880Z,28.0
2023-05-16T08:39:00.619Z,27.9
2023-05-16T08:40:00.629Z,27.9
2023-05-16T08:41:00.942Z,27.8
2023-05-16T08:42:00.811Z,27.9
2023-05-16T08:43:01.285Z,27.6
2023-05-16T08:44:00.673Z,27.7
2023-05-16T08:45:00.771Z,27.7
2023-05-16T08:46:00.678Z,27.8
2023-05-16T08:47:10.239Z,28.1
2023-05-16T08:48:00.773Z,28.0
2023-05-16T08:49:00.628Z,27.8
2023-05-16T08:50:02.138Z,27.8
2023-05-16T08:51:01.699Z,27.9
2023-05-16T08:52:01.180Z,27.9
2023-05-16T08:53:04.267Z,28.1
2023-05-16T08:54:05.536Z,28.1
2023-05-16T08:56:01.379Z,28.4
2023-05-16T08:57:01.123Z,28.6
2023-05-16T08:58:00.715Z,28.7
2023-05-16T08:59:01.522Z,28.6
2023-05-16T09:00:01.069Z,28.8
2023-05-16T09:01:00.804Z,29.1
2023-05-16T09:02:00.667Z,29.0
2023-05-16T09:03:01.405Z,29.1
2023-05-16T09:04:02.218Z,29.0
2023-05-16T09:05:00.720Z,29.0
2023-05-16T09:06:00.653Z,29.0
2023-05-16T09:07:00.655Z,29.5
2023-05-16T09:08:00.625Z,29.4
2023-05-16T09:09:00.635Z,29.5
2023-05-16T09:10:00.636Z,29.5
2023-05-16T09:11:01.682Z,29.6
2023-05-16T09:12:00.658Z,29.8
2023-05-16T09:13:00.676Z,29.8
2023-05-16T09:14:00.660Z,29.7
2023-05-16T09:15:02.987Z,29.8
2023-05-16T09:16:10.520Z,30.0
2023-05-16T09:17:02.652Z,30.2
2023-05-16T09:18:00.919Z,30.1
2023-05-16T09:19:01.075Z,30.0
2023-05-16T09:20:07.043Z,29.9
2023-05-16T09:21:00.744Z,29.8
2023-05-16T09:22:01.547Z,29.9
2023-05-16T09:23:00.638Z,30.0
2023-05-16T09:24:02.351Z,30.1
2023-05-16T09:25:00.904Z,30.0
2023-05-16T09:26:00.924Z,29.7
2023-05-16T09:27:06.513Z,29.8
2023-05-16T09:28:00.859Z,29.7
2023-05-16T09:29:00.859Z,29.7
2023-05-16T09:30:00.950Z,29.7
2023-05-16T09:31:00.685Z,30.0
2023-05-16T09:32:08.008Z,30.0
2023-05-16T09:33:00.856Z,29.9
2023-05-16T09:34:00.644Z,29.9
2023-05-16T09:35:00.675Z,30.1
2023-05-16T09:36:01.858Z,30.2
2023-05-16T09:37:00.793Z,30.5
2023-05-16T09:38:00.650Z,30.6
2023-05-16T09:39:00.662Z,30.8
2023-05-16T09:40:02.125Z,30.7
2023-05-16T09:41:01.114Z,30.8
2023-05-16T09:42:00.701Z,30.5
2023-05-16T09:43:02.940Z,30.0
2023-05-16T09:44:04.532Z,29.9
2023-05-16T09:45:01.740Z,30.0
2023-05-16T09:46:00.789Z,30.0
2023-05-16T09:47:00.635Z,30.2
2023-05-16T09:48:03.127Z,30.2
2023-05-16T09:49:01.582Z,30.2
2023-05-16T09:50:00.639Z,30.2
2023-05-16T09:51:02.803Z,30.2
2023-05-16T09:52:01.239Z,30.3
2023-05-16T09:53:01.096Z,30.4
2023-05-16T09:54:00.754Z,30.2
2023-05-16T09:55:01.783Z,29.9
2023-05-16T09:56:03.281Z,29.8
2023-05-16T09:57:02.995Z,29.9
2023-05-16T09:58:00.646Z,29.9
2023-05-16T09:59:09.126Z,29.8
2023-05-16T10:00:00.659Z,29.8
2023-05-16T10:01:01.177Z,29.9
2023-05-16T10:02:01.757Z,29.9
2023-05-16T10:03:04.334Z,29.9
2023-05-16T10:04:00.818Z,29.7
2023-05-16T10:05:00.681Z,29.6
2023-05-16T10:06:01.001Z,29.7
2023-05-16T10:07:02.442Z,29.8
2023-05-16T10:08:01.852Z,29.9
2023-05-16T10:09:02.943Z,29.9
2023-05-16T10:10:04.422Z,29.9
2023-05-16T10:11:01.949Z,30.0
2023-05-16T10:12:01.367Z,30.0
2023-05-16T10:13:03.751Z,30.1
2023-05-16T10:14:01.502Z,30.2
2023-05-16T10:15:01.835Z,30.3
2023-05-16T10:16:05.027Z,30.2
2023-05-16T10:17:02.269Z,30.3
2023-05-16T10:18:00.876Z,30.3
2023-05-16T10:19:01.961Z,30.2
2023-05-16T10:20:01.193Z,30.2
2023-05-16T10:21:03.869Z,30.1
2023-05-16T10:22:03.352Z,30.0
2023-05-16T10:23:01.704Z,30.1
2023-05-16T10:24:02.772Z,30.2
2023-05-16T10:25:10.561Z,30.1
2023-05-16T10:26:02.319Z,30.1
2023-05-16T10:27:02.054Z,30.5
2023-05-16T10:28:01.568Z,30.5
2023-05-16T10:29:00.844Z,30.4
2023-05-16T10:30:01.204Z,30.3
2023-05-16T10:31:00.915Z,30.2
2023-05-16T10:32:02.522Z,30.2
2023-05-16T10:33:01.049Z,30.1
2023-05-16T10:34:00.872Z,30.0
2023-05-16T10:35:01.090Z,30.0
2023-05-16T10:36:00.802Z,30.0
2023-05-16T10:37:01.145Z,30.1
2023-05-16T10:38:01.013Z,30.2
2023-05-16T10:39:01.425Z,30.3
2023-05-16T10:40:00.965Z,30.2
2023-05-16T10:41:00.819Z,30.2
2023-05-16T10:42:00.759Z,30.1
2023-05-16T10:43:01.550Z,30.2
2023-05-16T10:44:00.639Z,30.1
2023-05-16T10:45:10.525Z,30.0
2023-05-16T10:46:03.325Z,29.9
2023-05-16T10:47:00.698Z,30.0
2023-05-16T10:48:01.894Z,29.9
2023-05-16T10:49:10.513Z,29.7
2023-05-16T10:50:00.720Z,29.7
2023-05-16T10:51:02.522Z,29.8
2023-05-16T10:52:03.731Z,29.9
2023-05-16T10:53:10.521Z,30.0
2023-05-16T10:54:05.008Z,30.0
2023-05-16T10:55:01.747Z,30.0
2023-05-16T10:56:00.666Z,29.9
2023-05-16T10:57:04.475Z,30.0
2023-05-16T10:58:02.034Z,29.8
2023-05-16T10:59:01.404Z,29.7
2023-05-16T11:00:00.674Z,29.6
2023-05-16T11:01:10.562Z,29.4
2023-05-16T11:02:00.672Z,29.2
2023-05-16T11:03:05.568Z,28.9
2023-05-16T11:04:00.918Z,28.9
2023-05-16T11:05:01.654Z,28.9
2023-05-16T11:06:01.218Z,28.9
2023-05-16T11:07:02.296Z,29.0
2023-05-16T11:08:07.890Z,29.1
2023-05-16T11:09:04.004Z,29.2
2023-05-16T11:10:02.002Z,29.2
2023-05-16T11:11:10.519Z,29.1
2023-05-16T11:12:01.209Z,29.2
2023-05-16T11:13:02.335Z,29.4
2023-05-16T11:14:03.097Z,29.7
2023-05-16T11:15:00.738Z,29.9
2023-05-16T11:16:10.524Z,30.0
2023-05-16T11:17:10.555Z,30.0
2023-05-16T11:18:10.618Z,29.8
2023-05-16T11:19:04.709Z,29.6
2023-05-16T11:20:00.673Z,29.6
2023-05-16T11:21:02.577Z,29.8
2023-05-16T11:22:08.020Z,29.9
2023-05-16T11:23:10.533Z,29.9
2023-05-16T11:24:10.507Z,30.0
2023-05-16T11:25:02.150Z,30.0
2023-05-16T11:26:02.164Z,30.2
2023-05-16T11:27:01.147Z,30.3
2023-05-16T11:28:00.849Z,30.5
2023-05-16T11:29:00.764Z,30.6
2023-05-16T11:30:04.333Z,30.6
2023-05-16T11:31:00.680Z,30.2
2023-05-16T11:32:02.436Z,30.3
2023-05-16T11:33:00.694Z,30.1
2023-05-16T11:34:00.924Z,29.3
2023-05-16T11:35:01.092Z,29.3
2023-05-16T11:36:13.987Z,29.3
2023-05-16T11:37:00.675Z,29.4
2023-05-16T11:38:00.640Z,29.0
2023-05-16T11:39:05.087Z,29.1
2023-05-16T11:40:01.429Z,28.6
2023-05-16T11:41:01.471Z,28.0
2023-05-16T11:42:00.647Z,27.5
2023-05-16T11:43:00.658Z,27.1
2023-05-16T11:44:00.668Z,26.9
2023-05-16T11:45:04.025Z,27.3
2023-05-16T11:46:00.654Z,27.5
2023-05-16T11:47:00.878Z,28.1
2023-05-16T11:48:01.901Z,28.1
2023-05-16T11:49:00.688Z,28.3
2023-05-16T11:50:02.778Z,28.3
2023-05-16T11:51:00.691Z,28.1
2023-05-16T11:52:01.046Z,27.7
2023-05-16T11:53:01.394Z,27.6
2023-05-16T11:54:01.546Z,27.3
2023-05-16T11:55:00.704Z,27.6
2023-05-16T11:56:01.212Z,27.5
2023-05-16T11:57:02.988Z,27.9
2023-05-16T11:58:00.788Z,28.2
2023-05-16T11:59:00.927Z,27.9
2023-05-16T12:00:02.788Z,28.0
2023-05-16T12:01:03.017Z,28.2
2023-05-16T12:02:02.693Z,27.6
2023-05-16T12:03:02.131Z,26.9
2023-05-16T12:04:00.859Z,26.8
2023-05-16T12:05:05.199Z,27.0
2023-05-16T12:06:00.642Z,27.0
2023-05-16T12:07:01.073Z,26.9
2023-05-16T12:08:00.668Z,26.9
2023-05-16T12:09:00.730Z,27.0
2023-05-16T12:10:04.087Z,26.6
2023-05-16T12:11:00.662Z,26.8
2023-05-16T12:12:03.739Z,26.5
2023-05-16T12:13:01.463Z,26.8
2023-05-16T12:14:00.687Z,27.3
2023-05-16T12:15:01.615Z,27.6
2023-05-16T12:16:00.859Z,27.7
2023-05-16T12:17:00.861Z,27.5
2023-05-16T12:18:00.994Z,27.4
2023-05-16T12:19:00.836Z,27.5
2023-05-16T12:20:01.154Z,27.5
2023-05-16T12:21:00.649Z,27.9
2023-05-16T12:22:00.656Z,28.1
2023-05-16T12:23:00.737Z,27.8
2023-05-16T12:24:00.812Z,28.0
2023-05-16T12:25:10.517Z,28.0
2023-05-16T12:26:01.923Z,27.4
2023-05-16T12:27:00.717Z,27.6
2023-05-16T12:28:01.950Z,27.3
2023-05-16T12:29:01.893Z,27.5
2023-05-16T12:30:00.675Z,27.6
2023-05-16T12:31:00.742Z,27.9
2023-05-16T12:32:00.738Z,27.8
2023-05-16T12:33:04.361Z,27.6
2023-05-16T12:34:00.966Z,27.5
2023-05-16T12:35:00.705Z,27.3
2023-05-16T12:36:00.694Z,26.9
2023-05-16T12:37:00.680Z,27.0
2023-05-16T12:38:03.442Z,27.1
2023-05-16T12:39:01.241Z,27.0
2023-05-16T12:40:00.679Z,26.7
2023-05-16T12:41:00.679Z,26.5
2023-05-16T12:42:03.959Z,26.4
2023-05-16T12:43:00.645Z,26.0
2023-05-16T12:44:10.522Z,25.9
2023-05-16T12:45:00.665Z,26.3
2023-05-16T12:46:00.673Z,26.5
2023-05-16T12:47:01.196Z,27.0
2023-05-16T12:48:04.501Z,27.2
2023-05-16T12:49:01.992Z,26.9
2023-05-16T12:50:00.776Z,27.2
2023-05-16T12:51:09.616Z,27.1
2023-05-16T12:52:00.652Z,26.8
2023-05-16T12:53:00.715Z,26.5
2023-05-16T12:54:10.362Z,26.5
2023-05-16T12:55:00.684Z,26.3
2023-05-16T12:56:00.639Z,26.1
2023-05-16T12:57:00.632Z,26.3
2023-05-16T12:58:00.687Z,26.5
2023-05-16T12:59:00.712Z,26.6
2023-05-16T13:00:00.670Z,26.8
2023-05-16T13:01:00.626Z,26.7
2023-05-16T13:02:00.867Z,27.1
2023-05-16T13:03:00.789Z,26.9
2023-05-16T13:04:01.445Z,26.9
2023-05-16T13:05:00.623Z,26.7
2023-05-16T13:06:01.095Z,27.0
2023-05-16T13:07:00.681Z,27.2
2023-05-16T13:08:00.658Z,27.0
2023-05-16T13:09:00.630Z,26.9
2023-05-16T13:10:00.914Z,26.9
2023-05-16T13:11:00.686Z,26.9
2023-05-16T13:12:00.837Z,26.5
2023-05-16T13:13:00.662Z,26.3
2023-05-16T13:14:00.661Z,26.5
2023-05-16T13:15:00.725Z,26.6
2023-05-16T13:16:00.675Z,26.1
2023-05-16T13:17:00.682Z,26.2
2023-05-16T13:18:00.718Z,25.8
2023-05-16T13:19:00.675Z,25.6